sensor_id;sensor_type;location;lat;lon;timestamp;P1;durP1;ratioP1;P2;durP2;ratioP2
68126;SDS011;54931;52.098;21.006;2022-12-11T00:00:39;57.10;;;17.90;;
68126;SDS011;54931;52.098;21.006;2022-12-11T00:03:28;71.00;;;21.60;;
68126;SDS011;54931;52.098;21.006;2022-12-11T00:05:56;66.60;;;20.40;;
68126;SDS011;54931;52.098;21.006;2022-12-11T00:08:24;78.60;;;21.30;;
68126;SDS011;54931;52.098;21.006;2022-12-11T00:10:52;73.90;;;21.30;;
68126;SDS011;54931;52.098;21.006;2022-12-11T00:13:19;63.20;;;19.30;;
68126;SDS011;54931;52.098;21.006;2022-12-11T00:15:47;72.50;;;22.70;;
68126;SDS011;54931;52.098;21.006;2022-12-11T00:18:15;63.70;;;19.70;;
68126;SDS011;54931;52.098;21.006;2022-12-11T00:20:43;67.30;;;19.70;;
68126;SDS011;54931;52.098;21.006;2022-12-11T00:23:11;55.10;;;18.60;;
68126;SDS011;54931;52.098;21.006;2022-12-11T00:25:45;50.90;;;15.20;;
68126;SDS011;54931;52.098;21.006;2022-12-11T00:28:15;59.60;;;19.00;;
68126;SDS011;54931;52.098;21.006;2022-12-11T00:30:47;46.20;;;13.60;;
68126;SDS011;54931;52.098;21.006;2022-12-11T00:33:15;66.60;;;20.20;;
68126;SDS011;54931;52.098;21.006;2022-12-11T00:35:45;68.60;;;22.60;;
68126;SDS011;54931;52.098;21.006;2022-12-11T00:38:15;56.50;;;15.60;;
68126;SDS011;54931;52.098;21.006;2022-12-11T00:40:45;60.80;;;18.50;;
68126;SDS011;54931;52.098;21.006;2022-12-11T00:43:14;62.60;;;18.00;;
68126;SDS011;54931;52.098;21.006;2022-12-11T00:45:44;60.00;;;18.90;;
68126;SDS011;54931;52.098;21.006;2022-12-11T00:48:13;68.90;;;22.30;;
68126;SDS011;54931;52.098;21.006;2022-12-11T00:50:41;58.10;;;18.10;;
68126;SDS011;54931;52.098;21.006;2022-12-11T00:53:09;58.50;;;17.80;;
68126;SDS011;54931;52.098;21.006;2022-12-11T00:55:38;61.10;;;20.20;;
68126;SDS011;54931;52.098;21.006;2022-12-11T00:58:07;64.20;;;21.20;;
68126;SDS011;54931;52.098;21.006;2022-12-11T01:00:36;59.50;;;19.40;;
68126;SDS011;54931;52.098;21.006;2022-12-11T01:03:04;62.50;;;19.70;;
68126;SDS011;54931;52.098;21.006;2022-12-11T01:05:33;67.30;;;20.50;;
68126;SDS011;54931;52.098;21.006;2022-12-11T01:08:01;57.40;;;18.90;;
68126;SDS011;54931;52.098;21.006;2022-12-11T01:10:29;62.20;;;19.40;;
68126;SDS011;54931;52.098;21.006;2022-12-11T01:13:01;60.70;;;18.80;;
68126;SDS011;54931;52.098;21.006;2022-12-11T01:15:40;57.80;;;18.50;;
68126;SDS011;54931;52.098;21.006;2022-12-11T01:18:13;61.00;;;17.80;;
68126;SDS011;54931;52.098;21.006;2022-12-11T01:20:42;59.90;;;18.10;;
68126;SDS011;54931;52.098;21.006;2022-12-11T01:23:11;63.10;;;20.10;;
68126;SDS011;54931;52.098;21.006;2022-12-11T01:25:40;55.20;;;17.50;;
68126;SDS011;54931;52.098;21.006;2022-12-11T01:28:09;59.70;;;18.40;;
68126;SDS011;54931;52.098;21.006;2022-12-11T01:30:39;63.50;;;19.00;;
68126;SDS011;54931;52.098;21.006;2022-12-11T01:33:09;56.30;;;17.90;;
68126;SDS011;54931;52.098;21.006;2022-12-11T01:35:38;58.40;;;17.50;;
68126;SDS011;54931;52.098;21.006;2022-12-11T01:38:06;53.60;;;17.30;;
68126;SDS011;54931;52.098;21.006;2022-12-11T01:40:34;55.50;;;17.50;;
68126;SDS011;54931;52.098;21.006;2022-12-11T01:43:01;64.20;;;17.60;;
68126;SDS011;54931;52.098;21.006;2022-12-11T01:45:41;56.70;;;15.40;;
68126;SDS011;54931;52.098;21.006;2022-12-11T01:48:20;57.30;;;16.40;;
68126;SDS011;54931;52.098;21.006;2022-12-11T01:50:58;61.90;;;17.70;;
68126;SDS011;54931;52.098;21.006;2022-12-11T01:53:33;59.60;;;20.10;;
68126;SDS011;54931;52.098;21.006;2022-12-11T01:56:05;60.30;;;17.90;;
68126;SDS011;54931;52.098;21.006;2022-12-11T01:58:38;63.20;;;19.10;;
68126;SDS011;54931;52.098;21.006;2022-12-11T02:01:19;69.90;;;20.50;;
68126;SDS011;54931;52.098;21.006;2022-12-11T02:03:53;59.30;;;17.10;;
68126;SDS011;54931;52.098;21.006;2022-12-11T02:06:37;60.00;;;17.00;;
68126;SDS011;54931;52.098;21.006;2022-12-11T02:09:10;56.90;;;18.30;;
68126;SDS011;54931;52.098;21.006;2022-12-11T02:11:43;66.30;;;19.30;;
68126;SDS011;54931;52.098;21.006;2022-12-11T02:18:16;67.50;;;18.50;;
68126;SDS011;54931;52.098;21.006;2022-12-11T02:30:13;61.50;;;17.60;;
68126;SDS011;54931;52.098;21.006;2022-12-11T02:35:21;67.50;;;19.70;;
68126;SDS011;54931;52.098;21.006;2022-12-11T02:37:57;68.20;;;21.50;;
68126;SDS011;54931;52.098;21.006;2022-12-11T02:40:34;56.70;;;16.70;;
68126;SDS011;54931;52.098;21.006;2022-12-11T02:43:09;66.10;;;20.00;;
68126;SDS011;54931;52.098;21.006;2022-12-11T02:45:41;64.90;;;18.70;;
68126;SDS011;54931;52.098;21.006;2022-12-11T02:48:12;60.60;;;17.50;;
68126;SDS011;54931;52.098;21.006;2022-12-11T02:50:46;57.40;;;17.80;;
68126;SDS011;54931;52.098;21.006;2022-12-11T02:53:19;56.30;;;16.20;;
68126;SDS011;54931;52.098;21.006;2022-12-11T02:55:53;63.90;;;17.10;;
68126;SDS011;54931;52.098;21.006;2022-12-11T02:58:30;62.70;;;18.80;;
68126;SDS011;54931;52.098;21.006;2022-12-11T03:00:59;63.90;;;16.70;;
68126;SDS011;54931;52.098;21.006;2022-12-11T03:03:28;65.20;;;20.40;;
68126;SDS011;54931;52.098;21.006;2022-12-11T03:05:57;68.90;;;19.50;;
68126;SDS011;54931;52.098;21.006;2022-12-11T03:08:24;64.90;;;18.20;;
68126;SDS011;54931;52.098;21.006;2022-12-11T03:10:52;66.00;;;19.90;;
68126;SDS011;54931;52.098;21.006;2022-12-11T03:13:21;57.40;;;17.30;;
68126;SDS011;54931;52.098;21.006;2022-12-11T03:21:51;58.30;;;18.80;;
68126;SDS011;54931;52.098;21.006;2022-12-11T03:24:37;61.20;;;18.50;;
68126;SDS011;54931;52.098;21.006;2022-12-11T03:27:16;41.90;;;13.00;;
68126;SDS011;54931;52.098;21.006;2022-12-11T03:29:59;59.60;;;17.30;;
68126;SDS011;54931;52.098;21.006;2022-12-11T03:32:51;65.70;;;19.20;;
68126;SDS011;54931;52.098;21.006;2022-12-11T03:38:09;54.90;;;15.80;;
68126;SDS011;54931;52.098;21.006;2022-12-11T03:40:45;55.60;;;16.60;;
68126;SDS011;54931;52.098;21.006;2022-12-11T03:43:16;50.50;;;16.00;;
68126;SDS011;54931;52.098;21.006;2022-12-11T03:45:45;59.10;;;17.40;;
68126;SDS011;54931;52.098;21.006;2022-12-11T03:48:17;45.00;;;14.80;;
68126;SDS011;54931;52.098;21.006;2022-12-11T03:50:47;50.70;;;15.20;;
68126;SDS011;54931;52.098;21.006;2022-12-11T03:53:17;47.60;;;14.30;;
68126;SDS011;54931;52.098;21.006;2022-12-11T03:55:47;56.20;;;17.80;;
68126;SDS011;54931;52.098;21.006;2022-12-11T03:58:16;56.80;;;17.30;;
68126;SDS011;54931;52.098;21.006;2022-12-11T04:00:44;55.00;;;15.90;;
68126;SDS011;54931;52.098;21.006;2022-12-11T04:03:11;56.00;;;17.50;;
68126;SDS011;54931;52.098;21.006;2022-12-11T04:05:40;50.40;;;15.80;;
68126;SDS011;54931;52.098;21.006;2022-12-11T04:08:13;53.10;;;16.60;;
68126;SDS011;54931;52.098;21.006;2022-12-11T04:10:42;49.90;;;15.30;;
68126;SDS011;54931;52.098;21.006;2022-12-11T04:13:10;44.70;;;14.10;;
68126;SDS011;54931;52.098;21.006;2022-12-11T04:15:39;47.80;;;14.70;;
68126;SDS011;54931;52.098;21.006;2022-12-11T04:18:07;43.70;;;15.50;;
68126;SDS011;54931;52.098;21.006;2022-12-11T04:20:55;34.20;;;11.40;;
68126;SDS011;54931;52.098;21.006;2022-12-11T04:23:41;44.20;;;14.30;;
68126;SDS011;54931;52.098;21.006;2022-12-11T04:26:27;44.60;;;14.40;;
68126;SDS011;54931;52.098;21.006;2022-12-11T04:28:55;40.90;;;13.70;;
68126;SDS011;54931;52.098;21.006;2022-12-11T04:31:23;40.40;;;13.80;;
68126;SDS011;54931;52.098;21.006;2022-12-11T04:33:51;40.40;;;12.00;;
68126;SDS011;54931;52.098;21.006;2022-12-11T04:36:20;36.50;;;12.70;;
68126;SDS011;54931;52.098;21.006;2022-12-11T04:38:48;46.30;;;16.00;;
68126;SDS011;54931;52.098;21.006;2022-12-11T04:41:16;44.50;;;13.50;;
68126;SDS011;54931;52.098;21.006;2022-12-11T04:43:44;45.00;;;15.20;;
68126;SDS011;54931;52.098;21.006;2022-12-11T04:46:18;48.70;;;17.50;;
68126;SDS011;54931;52.098;21.006;2022-12-11T04:48:48;48.20;;;17.30;;
68126;SDS011;54931;52.098;21.006;2022-12-11T04:51:17;34.20;;;11.90;;
68126;SDS011;54931;52.098;21.006;2022-12-11T04:53:46;45.80;;;15.30;;
68126;SDS011;54931;52.098;21.006;2022-12-11T04:56:14;33.90;;;12.40;;
68126;SDS011;54931;52.098;21.006;2022-12-11T04:58:43;39.60;;;14.20;;
68126;SDS011;54931;52.098;21.006;2022-12-11T05:01:16;39.80;;;12.20;;
68126;SDS011;54931;52.098;21.006;2022-12-11T05:03:48;47.30;;;13.80;;
68126;SDS011;54931;52.098;21.006;2022-12-11T05:06:16;39.10;;;14.60;;
68126;SDS011;54931;52.098;21.006;2022-12-11T05:08:44;35.50;;;11.60;;
68126;SDS011;54931;52.098;21.006;2022-12-11T05:11:13;42.70;;;14.90;;
68126;SDS011;54931;52.098;21.006;2022-12-11T05:13:42;41.40;;;15.90;;
68126;SDS011;54931;52.098;21.006;2022-12-11T05:16:12;37.60;;;13.80;;
68126;SDS011;54931;52.098;21.006;2022-12-11T05:18:41;35.00;;;13.00;;
68126;SDS011;54931;52.098;21.006;2022-12-11T05:21:11;38.00;;;13.30;;
68126;SDS011;54931;52.098;21.006;2022-12-11T05:23:40;37.30;;;14.00;;
68126;SDS011;54931;52.098;21.006;2022-12-11T05:26:17;42.40;;;14.40;;
68126;SDS011;54931;52.098;21.006;2022-12-11T05:28:50;37.70;;;14.80;;
68126;SDS011;54931;52.098;21.006;2022-12-11T05:31:22;41.00;;;14.70;;
68126;SDS011;54931;52.098;21.006;2022-12-11T05:33:52;36.30;;;13.80;;
68126;SDS011;54931;52.098;21.006;2022-12-11T05:36:25;36.50;;;12.40;;
68126;SDS011;54931;52.098;21.006;2022-12-11T05:38:56;38.80;;;13.30;;
68126;SDS011;54931;52.098;21.006;2022-12-11T05:41:28;35.80;;;12.20;;
68126;SDS011;54931;52.098;21.006;2022-12-11T05:43:57;39.00;;;14.90;;
68126;SDS011;54931;52.098;21.006;2022-12-11T05:46:27;38.30;;;13.10;;
68126;SDS011;54931;52.098;21.006;2022-12-11T05:48:59;42.70;;;15.30;;
68126;SDS011;54931;52.098;21.006;2022-12-11T05:51:29;40.00;;;13.80;;
68126;SDS011;54931;52.098;21.006;2022-12-11T05:53:57;33.80;;;13.00;;
68126;SDS011;54931;52.098;21.006;2022-12-11T05:56:30;33.90;;;12.30;;
68126;SDS011;54931;52.098;21.006;2022-12-11T05:59:00;34.20;;;12.90;;
68126;SDS011;54931;52.098;21.006;2022-12-11T06:01:39;39.40;;;14.70;;
68126;SDS011;54931;52.098;21.006;2022-12-11T06:04:10;31.20;;;12.10;;
68126;SDS011;54931;52.098;21.006;2022-12-11T06:06:40;35.30;;;13.70;;
68126;SDS011;54931;52.098;21.006;2022-12-11T06:09:14;31.60;;;11.50;;
68126;SDS011;54931;52.098;21.006;2022-12-11T06:11:43;26.40;;;9.70;;
68126;SDS011;54931;52.098;21.006;2022-12-11T06:14:11;32.40;;;12.30;;
68126;SDS011;54931;52.098;21.006;2022-12-11T06:16:39;32.20;;;12.10;;
68126;SDS011;54931;52.098;21.006;2022-12-11T06:19:13;25.30;;;10.00;;
68126;SDS011;54931;52.098;21.006;2022-12-11T06:21:41;31.50;;;12.00;;
68126;SDS011;54931;52.098;21.006;2022-12-11T06:24:10;33.70;;;13.60;;
68126;SDS011;54931;52.098;21.006;2022-12-11T06:26:47;35.80;;;11.00;;
68126;SDS011;54931;52.098;21.006;2022-12-11T06:29:16;25.10;;;10.20;;
68126;SDS011;54931;52.098;21.006;2022-12-11T06:31:44;27.50;;;10.30;;
68126;SDS011;54931;52.098;21.006;2022-12-11T06:34:12;25.20;;;8.20;;
68126;SDS011;54931;52.098;21.006;2022-12-11T06:36:40;27.10;;;10.50;;
68126;SDS011;54931;52.098;21.006;2022-12-11T06:39:08;27.80;;;10.60;;
68126;SDS011;54931;52.098;21.006;2022-12-11T06:41:36;26.20;;;10.40;;
68126;SDS011;54931;52.098;21.006;2022-12-11T06:44:05;21.20;;;8.80;;
68126;SDS011;54931;52.098;21.006;2022-12-11T06:46:33;28.70;;;11.30;;
68126;SDS011;54931;52.098;21.006;2022-12-11T06:49:01;27.20;;;10.10;;
68126;SDS011;54931;52.098;21.006;2022-12-11T06:51:28;28.30;;;11.10;;
68126;SDS011;54931;52.098;21.006;2022-12-11T06:53:57;28.20;;;11.00;;
68126;SDS011;54931;52.098;21.006;2022-12-11T06:56:25;23.60;;;9.30;;
68126;SDS011;54931;52.098;21.006;2022-12-11T06:58:53;24.00;;;9.20;;
68126;SDS011;54931;52.098;21.006;2022-12-11T07:01:24;27.90;;;10.50;;
68126;SDS011;54931;52.098;21.006;2022-12-11T07:03:55;26.90;;;11.60;;
68126;SDS011;54931;52.098;21.006;2022-12-11T07:06:25;24.10;;;10.60;;
68126;SDS011;54931;52.098;21.006;2022-12-11T07:08:54;23.70;;;8.50;;
68126;SDS011;54931;52.098;21.006;2022-12-11T07:11:23;24.80;;;10.10;;
68126;SDS011;54931;52.098;21.006;2022-12-11T07:13:51;18.20;;;7.60;;
68126;SDS011;54931;52.098;21.006;2022-12-11T07:16:19;24.80;;;10.00;;
68126;SDS011;54931;52.098;21.006;2022-12-11T07:18:48;23.30;;;8.30;;
68126;SDS011;54931;52.098;21.006;2022-12-11T07:21:19;26.00;;;8.90;;
68126;SDS011;54931;52.098;21.006;2022-12-11T07:23:48;22.10;;;8.20;;
68126;SDS011;54931;52.098;21.006;2022-12-11T07:26:19;17.90;;;6.70;;
68126;SDS011;54931;52.098;21.006;2022-12-11T07:28:48;21.90;;;9.60;;
68126;SDS011;54931;52.098;21.006;2022-12-11T07:31:20;18.10;;;8.30;;
68126;SDS011;54931;52.098;21.006;2022-12-11T07:33:57;25.30;;;9.70;;
68126;SDS011;54931;52.098;21.006;2022-12-11T07:36:29;22.40;;;9.60;;
68126;SDS011;54931;52.098;21.006;2022-12-11T07:38:58;18.80;;;7.80;;
68126;SDS011;54931;52.098;21.006;2022-12-11T07:41:26;20.10;;;9.90;;
68126;SDS011;54931;52.098;21.006;2022-12-11T07:43:55;22.80;;;8.90;;
68126;SDS011;54931;52.098;21.006;2022-12-11T07:46:26;21.10;;;8.50;;
68126;SDS011;54931;52.098;21.006;2022-12-11T07:48:55;22.40;;;7.70;;
68126;SDS011;54931;52.098;21.006;2022-12-11T07:51:25;25.30;;;9.30;;
68126;SDS011;54931;52.098;21.006;2022-12-11T07:53:59;25.70;;;9.30;;
68126;SDS011;54931;52.098;21.006;2022-12-11T07:56:29;13.40;;;6.20;;
68126;SDS011;54931;52.098;21.006;2022-12-11T07:58:59;25.40;;;9.60;;
68126;SDS011;54931;52.098;21.006;2022-12-11T08:01:29;20.70;;;7.50;;
68126;SDS011;54931;52.098;21.006;2022-12-11T08:03:58;25.40;;;10.80;;
68126;SDS011;54931;52.098;21.006;2022-12-11T08:06:29;26.20;;;8.70;;
68126;SDS011;54931;52.098;21.006;2022-12-11T08:09:00;25.70;;;9.60;;
68126;SDS011;54931;52.098;21.006;2022-12-11T08:11:30;26.10;;;9.60;;
68126;SDS011;54931;52.098;21.006;2022-12-11T08:13:58;26.90;;;9.40;;
68126;SDS011;54931;52.098;21.006;2022-12-11T08:16:26;29.10;;;10.70;;
68126;SDS011;54931;52.098;21.006;2022-12-11T08:18:55;29.60;;;11.60;;
68126;SDS011;54931;52.098;21.006;2022-12-11T08:21:27;28.00;;;11.00;;
68126;SDS011;54931;52.098;21.006;2022-12-11T08:23:55;24.30;;;10.40;;
68126;SDS011;54931;52.098;21.006;2022-12-11T08:26:26;26.20;;;10.60;;
68126;SDS011;54931;52.098;21.006;2022-12-11T08:28:56;27.60;;;12.40;;
68126;SDS011;54931;52.098;21.006;2022-12-11T08:31:25;19.30;;;8.70;;
68126;SDS011;54931;52.098;21.006;2022-12-11T08:33:55;23.70;;;8.80;;
68126;SDS011;54931;52.098;21.006;2022-12-11T08:36:24;29.90;;;10.70;;
68126;SDS011;54931;52.098;21.006;2022-12-11T08:38:54;29.20;;;10.90;;
68126;SDS011;54931;52.098;21.006;2022-12-11T08:41:29;25.30;;;10.30;;
68126;SDS011;54931;52.098;21.006;2022-12-11T08:43:57;29.30;;;11.30;;
68126;SDS011;54931;52.098;21.006;2022-12-11T08:46:29;28.10;;;10.60;;
68126;SDS011;54931;52.098;21.006;2022-12-11T08:48:58;27.20;;;10.60;;
68126;SDS011;54931;52.098;21.006;2022-12-11T08:51:28;23.20;;;9.40;;
68126;SDS011;54931;52.098;21.006;2022-12-11T08:53:58;27.90;;;9.80;;
68126;SDS011;54931;52.098;21.006;2022-12-11T08:56:28;25.70;;;9.50;;
68126;SDS011;54931;52.098;21.006;2022-12-11T08:59:01;27.20;;;10.30;;
68126;SDS011;54931;52.098;21.006;2022-12-11T09:01:29;26.90;;;10.60;;
68126;SDS011;54931;52.098;21.006;2022-12-11T09:03:57;31.00;;;11.90;;
68126;SDS011;54931;52.098;21.006;2022-12-11T09:06:27;23.70;;;9.10;;
68126;SDS011;54931;52.098;21.006;2022-12-11T09:08:58;22.30;;;8.70;;
68126;SDS011;54931;52.098;21.006;2022-12-11T09:11:30;25.00;;;10.10;;
68126;SDS011;54931;52.098;21.006;2022-12-11T09:14:00;25.00;;;10.00;;
68126;SDS011;54931;52.098;21.006;2022-12-11T09:16:28;25.30;;;9.40;;
68126;SDS011;54931;52.098;21.006;2022-12-11T09:18:58;23.40;;;8.70;;
68126;SDS011;54931;52.098;21.006;2022-12-11T09:21:28;30.60;;;11.10;;
68126;SDS011;54931;52.098;21.006;2022-12-11T09:23:58;23.80;;;9.20;;
68126;SDS011;54931;52.098;21.006;2022-12-11T09:26:28;26.90;;;9.60;;
68126;SDS011;54931;52.098;21.006;2022-12-11T09:28:56;23.80;;;9.10;;
68126;SDS011;54931;52.098;21.006;2022-12-11T09:31:27;26.40;;;10.50;;
68126;SDS011;54931;52.098;21.006;2022-12-11T09:33:59;28.00;;;11.10;;
68126;SDS011;54931;52.098;21.006;2022-12-11T09:36:32;28.60;;;10.90;;
68126;SDS011;54931;52.098;21.006;2022-12-11T09:39:01;29.70;;;11.50;;
68126;SDS011;54931;52.098;21.006;2022-12-11T09:42:20;29.90;;;11.90;;
68126;SDS011;54931;52.098;21.006;2022-12-11T09:47:33;27.50;;;11.00;;
68126;SDS011;54931;52.098;21.006;2022-12-11T09:52:53;24.30;;;9.80;;
68126;SDS011;54931;52.098;21.006;2022-12-11T09:55:24;27.80;;;11.40;;
68126;SDS011;54931;52.098;21.006;2022-12-11T09:58:30;25.40;;;10.60;;
68126;SDS011;54931;52.098;21.006;2022-12-11T10:12:43;25.60;;;9.20;;
68126;SDS011;54931;52.098;21.006;2022-12-11T10:18:16;26.40;;;9.80;;
68126;SDS011;54931;52.098;21.006;2022-12-11T10:20:49;24.60;;;10.60;;
68126;SDS011;54931;52.098;21.006;2022-12-11T10:23:23;25.70;;;10.90;;
68126;SDS011;54931;52.098;21.006;2022-12-11T10:26:21;33.20;;;11.20;;
68126;SDS011;54931;52.098;21.006;2022-12-11T10:28:51;26.80;;;10.10;;
68126;SDS011;54931;52.098;21.006;2022-12-11T10:31:41;30.00;;;11.20;;
68126;SDS011;54931;52.098;21.006;2022-12-11T10:34:34;30.80;;;12.20;;
68126;SDS011;54931;52.098;21.006;2022-12-11T10:37:04;25.40;;;9.70;;
68126;SDS011;54931;52.098;21.006;2022-12-11T10:39:33;28.80;;;11.60;;
68126;SDS011;54931;52.098;21.006;2022-12-11T10:42:15;25.80;;;10.90;;
68126;SDS011;54931;52.098;21.006;2022-12-11T10:44:57;36.10;;;13.40;;
68126;SDS011;54931;52.098;21.006;2022-12-11T10:47:27;75.70;;;24.30;;
68126;SDS011;54931;52.098;21.006;2022-12-11T10:50:01;76.70;;;23.90;;
68126;SDS011;54931;52.098;21.006;2022-12-11T10:52:34;57.80;;;20.70;;
68126;SDS011;54931;52.098;21.006;2022-12-11T10:55:16;71.30;;;26.30;;
68126;SDS011;54931;52.098;21.006;2022-12-11T10:58:22;43.70;;;18.10;;
68126;SDS011;54931;52.098;21.006;2022-12-11T11:01:07;35.50;;;14.40;;
68126;SDS011;54931;52.098;21.006;2022-12-11T11:04:01;24.30;;;10.70;;
68126;SDS011;54931;52.098;21.006;2022-12-11T11:06:32;28.30;;;11.00;;
68126;SDS011;54931;52.098;21.006;2022-12-11T11:09:02;21.80;;;9.10;;
68126;SDS011;54931;52.098;21.006;2022-12-11T11:11:33;28.80;;;11.80;;
68126;SDS011;54931;52.098;21.006;2022-12-11T11:14:14;28.50;;;11.00;;
68126;SDS011;54931;52.098;21.006;2022-12-11T11:16:46;30.60;;;12.20;;
68126;SDS011;54931;52.098;21.006;2022-12-11T11:19:22;28.30;;;11.70;;
68126;SDS011;54931;52.098;21.006;2022-12-11T11:22:05;30.10;;;12.60;;
68126;SDS011;54931;52.098;21.006;2022-12-11T11:27:17;30.30;;;11.30;;
68126;SDS011;54931;52.098;21.006;2022-12-11T11:30:21;29.60;;;12.20;;
68126;SDS011;54931;52.098;21.006;2022-12-11T11:33:02;28.40;;;10.70;;
68126;SDS011;54931;52.098;21.006;2022-12-11T11:35:32;22.30;;;9.90;;
68126;SDS011;54931;52.098;21.006;2022-12-11T11:38:22;27.70;;;11.70;;
68126;SDS011;54931;52.098;21.006;2022-12-11T11:40:57;24.90;;;10.50;;
68126;SDS011;54931;52.098;21.006;2022-12-11T11:43:45;28.10;;;10.00;;
68126;SDS011;54931;52.098;21.006;2022-12-11T11:46:20;34.70;;;12.40;;
68126;SDS011;54931;52.098;21.006;2022-12-11T11:51:46;25.70;;;11.80;;
68126;SDS011;54931;52.098;21.006;2022-12-11T11:58:02;21.90;;;8.50;;
68126;SDS011;54931;52.098;21.006;2022-12-11T12:00:42;29.60;;;11.10;;
68126;SDS011;54931;52.098;21.006;2022-12-11T12:03:18;26.30;;;11.40;;
68126;SDS011;54931;52.098;21.006;2022-12-11T12:06:11;26.90;;;10.10;;
68126;SDS011;54931;52.098;21.006;2022-12-11T12:12:05;28.40;;;10.90;;
68126;SDS011;54931;52.098;21.006;2022-12-11T12:15:05;21.30;;;9.10;;
68126;SDS011;54931;52.098;21.006;2022-12-11T12:25:48;29.40;;;11.20;;
68126;SDS011;54931;52.098;21.006;2022-12-11T12:34:26;27.30;;;10.10;;
68126;SDS011;54931;52.098;21.006;2022-12-11T12:40:17;28.90;;;12.40;;
68126;SDS011;54931;52.098;21.006;2022-12-11T12:42:59;23.70;;;10.00;;
68126;SDS011;54931;52.098;21.006;2022-12-11T12:45:48;25.80;;;10.40;;
68126;SDS011;54931;52.098;21.006;2022-12-11T12:48:25;65.20;;;24.70;;
68126;SDS011;54931;52.098;21.006;2022-12-11T12:50:55;71.70;;;21.30;;
68126;SDS011;54931;52.098;21.006;2022-12-11T12:53:27;43.50;;;15.60;;
68126;SDS011;54931;52.098;21.006;2022-12-11T12:56:00;59.70;;;21.20;;
68126;SDS011;54931;52.098;21.006;2022-12-11T13:04:05;84.00;;;30.10;;
68126;SDS011;54931;52.098;21.006;2022-12-11T13:06:37;46.60;;;20.10;;
68126;SDS011;54931;52.098;21.006;2022-12-11T13:09:24;50.50;;;20.20;;
68126;SDS011;54931;52.098;21.006;2022-12-11T13:11:55;47.40;;;20.50;;
68126;SDS011;54931;52.098;21.006;2022-12-11T13:14:30;34.30;;;14.50;;
68126;SDS011;54931;52.098;21.006;2022-12-11T13:17:33;29.80;;;11.40;;
68126;SDS011;54931;52.098;21.006;2022-12-11T13:20:19;35.30;;;15.60;;
68126;SDS011;54931;52.098;21.006;2022-12-11T13:25:51;30.90;;;12.60;;
68126;SDS011;54931;52.098;21.006;2022-12-11T13:33:48;27.30;;;11.00;;
68126;SDS011;54931;52.098;21.006;2022-12-11T13:39:16;23.90;;;9.70;;
68126;SDS011;54931;52.098;21.006;2022-12-11T13:42:07;24.80;;;10.40;;
68126;SDS011;54931;52.098;21.006;2022-12-11T13:44:58;26.50;;;11.30;;
68126;SDS011;54931;52.098;21.006;2022-12-11T13:47:30;22.80;;;10.10;;
68126;SDS011;54931;52.098;21.006;2022-12-11T13:50:15;27.00;;;13.20;;
68126;SDS011;54931;52.098;21.006;2022-12-11T13:53:05;29.80;;;12.60;;
68126;SDS011;54931;52.098;21.006;2022-12-11T13:55:41;29.60;;;11.20;;
68126;SDS011;54931;52.098;21.006;2022-12-11T13:58:18;29.00;;;10.90;;
68126;SDS011;54931;52.098;21.006;2022-12-11T14:03:39;30.60;;;13.50;;
68126;SDS011;54931;52.098;21.006;2022-12-11T14:06:13;31.20;;;12.60;;
68126;SDS011;54931;52.098;21.006;2022-12-11T14:08:43;28.90;;;11.40;;
68126;SDS011;54931;52.098;21.006;2022-12-11T14:11:21;35.40;;;14.60;;
68126;SDS011;54931;52.098;21.006;2022-12-11T14:13:56;25.70;;;13.00;;
68126;SDS011;54931;52.098;21.006;2022-12-11T14:16:26;25.60;;;12.00;;
68126;SDS011;54931;52.098;21.006;2022-12-11T14:19:04;29.40;;;12.70;;
68126;SDS011;54931;52.098;21.006;2022-12-11T14:21:34;54.80;;;22.10;;
68126;SDS011;54931;52.098;21.006;2022-12-11T14:24:04;39.90;;;15.90;;
68126;SDS011;54931;52.098;21.006;2022-12-11T14:26:35;37.20;;;14.80;;
68126;SDS011;54931;52.098;21.006;2022-12-11T14:29:06;29.40;;;14.10;;
68126;SDS011;54931;52.098;21.006;2022-12-11T14:31:49;28.00;;;11.50;;
68126;SDS011;54931;52.098;21.006;2022-12-11T14:34:41;29.00;;;12.90;;
68126;SDS011;54931;52.098;21.006;2022-12-11T14:37:13;28.20;;;11.30;;
68126;SDS011;54931;52.098;21.006;2022-12-11T14:39:49;31.90;;;12.70;;
68126;SDS011;54931;52.098;21.006;2022-12-11T14:42:31;26.40;;;11.10;;
68126;SDS011;54931;52.098;21.006;2022-12-11T14:45:11;25.80;;;11.70;;
68126;SDS011;54931;52.098;21.006;2022-12-11T14:47:50;34.30;;;14.10;;
68126;SDS011;54931;52.098;21.006;2022-12-11T14:50:42;46.50;;;17.40;;
68126;SDS011;54931;52.098;21.006;2022-12-11T14:53:22;42.80;;;17.00;;
68126;SDS011;54931;52.098;21.006;2022-12-11T14:56:05;33.90;;;13.80;;
68126;SDS011;54931;52.098;21.006;2022-12-11T14:58:50;32.90;;;13.10;;
68126;SDS011;54931;52.098;21.006;2022-12-11T15:01:28;40.10;;;16.40;;
68126;SDS011;54931;52.098;21.006;2022-12-11T15:04:21;38.90;;;17.70;;
68126;SDS011;54931;52.098;21.006;2022-12-11T15:06:50;34.00;;;14.80;;
68126;SDS011;54931;52.098;21.006;2022-12-11T15:12:10;33.50;;;14.10;;
68126;SDS011;54931;52.098;21.006;2022-12-11T15:15:26;34.10;;;14.80;;
68126;SDS011;54931;52.098;21.006;2022-12-11T15:17:41;38.70;;;15.10;;
68126;SDS011;54931;52.098;21.006;2022-12-11T15:20:28;29.20;;;12.30;;
68126;SDS011;54931;52.098;21.006;2022-12-11T15:22:57;38.50;;;16.10;;
68126;SDS011;54931;52.098;21.006;2022-12-11T15:25:29;33.50;;;15.20;;
68126;SDS011;54931;52.098;21.006;2022-12-11T15:27:59;36.70;;;15.20;;
68126;SDS011;54931;52.098;21.006;2022-12-11T15:30:32;41.30;;;15.80;;
68126;SDS011;54931;52.098;21.006;2022-12-11T15:36:02;32.60;;;12.90;;
68126;SDS011;54931;52.098;21.006;2022-12-11T15:38:35;41.30;;;15.80;;
68126;SDS011;54931;52.098;21.006;2022-12-11T15:41:13;35.00;;;15.40;;
68126;SDS011;54931;52.098;21.006;2022-12-11T15:43:44;38.20;;;15.10;;
68126;SDS011;54931;52.098;21.006;2022-12-11T15:46:12;37.90;;;16.30;;
68126;SDS011;54931;52.098;21.006;2022-12-11T15:48:39;39.00;;;15.50;;
68126;SDS011;54931;52.098;21.006;2022-12-11T15:51:08;54.50;;;20.80;;
68126;SDS011;54931;52.098;21.006;2022-12-11T15:53:36;46.10;;;17.70;;
68126;SDS011;54931;52.098;21.006;2022-12-11T15:56:05;49.40;;;19.30;;
68126;SDS011;54931;52.098;21.006;2022-12-11T15:58:34;44.40;;;17.50;;
68126;SDS011;54931;52.098;21.006;2022-12-11T16:01:01;42.90;;;15.60;;
68126;SDS011;54931;52.098;21.006;2022-12-11T16:03:29;37.80;;;14.90;;
68126;SDS011;54931;52.098;21.006;2022-12-11T16:05:57;36.80;;;13.70;;
68126;SDS011;54931;52.098;21.006;2022-12-11T16:08:25;53.50;;;19.30;;
68126;SDS011;54931;52.098;21.006;2022-12-11T16:10:54;32.40;;;14.10;;
68126;SDS011;54931;52.098;21.006;2022-12-11T16:13:22;38.40;;;16.10;;
68126;SDS011;54931;52.098;21.006;2022-12-11T16:15:50;40.00;;;17.70;;
68126;SDS011;54931;52.098;21.006;2022-12-11T16:18:21;41.80;;;17.50;;
68126;SDS011;54931;52.098;21.006;2022-12-11T16:20:50;30.30;;;13.90;;
68126;SDS011;54931;52.098;21.006;2022-12-11T16:23:19;51.20;;;18.90;;
68126;SDS011;54931;52.098;21.006;2022-12-11T16:25:47;98.70;;;34.00;;